Time;durP1;ratioP1;P1;durP2;ratioP2;P2;SDS_P1;SDS_P2;PMS_P1;PMS_P2;Temp;Humidity;BMP_temperature;BMP_pressure;BME280_temperature;BME280_humidity;BME280_pressure;Samples;Min_cycle;Max_cycle;Signal;HPM_P1;HPM_P2
2022/07/28 00:00:05;;;;;;;2.63;2.00;;;;;;;14.87;51.77;101377.59;856704;23;1208;-93
2022/07/28 00:00:29;;;;;;;2.72;1.90;;;;;;;14.77;51.66;101356.38;847743;23;1414;-93
2022/07/28 00:00:52;;;;;;;4.03;2.30;;;;;;;14.87;51.70;101367.09;852521;23;1207;-93
2022/07/28 00:01:36;;;;;;;4.10;2.42;;;;;;;14.89;51.73;101370.63;848183;23;1148;-93
2022/07/28 00:02:07;;;;;;;2.42;1.92;;;;;;;14.82;51.66;101361.75;847906;23;1439;-93
2022/07/28 00:02:41;;;;;;;;;;;;;;;;;;;;;
2022/07/28 00:03:09;;;;;;;3.00;2.50;;;;;;;14.85;51.75;101363.53;844125;23;1316;-92
2022/07/28 00:03:30;;;;;;;2.47;2.00;;;;;;;14.83;51.60;101367.88;852283;23;1301;-94
2022/07/28 00:03:51;;;;;;;2.53;1.90;;;;;;;14.82;51.80;101363.47;852518;23;1279;-93
2022/07/28 00:04:16;;;;;;;2.80;2.10;;;;;;;14.80;51.70;101360.81;860281;23;1215;-93
2022/07/28 00:04:40;;;;;;;3.30;2.10;;;;;;;14.87;51.98;101372.34;856373;23;1104;-93
2022/07/28 00:05:04;;;;;;;3.95;2.20;;;;;;;14.78;51.71;101358.16;852241;23;1299;-92
2022/07/28 00:05:32;;;;;;;3.65;2.30;;;;;;;14.79;51.90;101357.31;852415;23;1272;-92
2022/07/28 00:06:00;;;;;;;2.65;2.20;;;;;;;14.74;51.81;101345.81;852473;23;1387;-91
2022/07/28 00:06:23;;;;;;;3.63;2.42;;;;;;;14.83;51.63;101365.25;847740;23;1368;-91
2022/07/28 00:06:46;;;;;;;3.05;2.38;;;;;;;14.79;51.57;101357.31;852652;23;1325;-92
2022/07/28 00:07:12;;;;;;;2.90;2.20;;;;;;;14.76;51.68;101359.84;847892;23;1342;-91
2022/07/28 00:07:33;;;;;;;4.50;2.20;;;;;;;14.76;51.97;101359.00;856433;23;1127;-91
2022/07/28 00:07:57;;;;;;;4.13;2.10;;;;;;;14.80;51.68;101372.22;848142;23;1413;-92
2022/07/28 00:08:17;;;;;;;3.17;1.90;;;;;;;14.72;51.78;101350.16;848129;23;1294;-92
2022/07/28 00:08:43;;;;;;;3.55;1.90;;;;;;;14.76;51.83;101361.63;852368;23;1076;-92
2022/07/28 00:09:04;;;;;;;4.45;1.90;;;;;;;14.76;51.81;101366.88;848275;23;1343;-91
2022/07/28 00:09:32;;;;;;;4.45;2.00;;;;;;;14.74;51.90;101363.34;852194;23;1145;-92
2022/07/28 00:09:53;;;;;;;4.05;2.05;;;;;;;14.77;52.10;101366.00;851995;23;1180;-92
2022/07/28 00:10:17;;;;;;;3.47;2.10;;;;;;;14.71;52.04;101358.91;844101;23;1165;-92
2022/07/28 00:10:40;;;;;;;3.47;2.10;;;;;;;14.73;51.96;101370.31;848364;23;1350;-91
2022/07/28 00:11:09;;;;;;;3.25;2.03;;;;;;;14.80;51.91;101377.47;852208;23;1910;-91
2022/07/28 00:11:34;;;;;;;3.40;2.00;;;;;;;14.82;52.13;101384.50;856326;23;1412;-92
2022/07/28 00:11:58;;;;;;;3.95;2.20;;;;;;;14.74;51.90;101377.34;860633;23;1123;-91
2022/07/28 00:12:21;;;;;;;3.60;2.20;;;;;;;14.75;52.11;101379.09;851960;23;1168;-91
2022/07/28 00:12:44;;;;;;;3.25;2.20;;;;;;;14.70;52.03;101365.00;848182;23;1085;-91
2022/07/28 00:13:14;;;;;;;2.80;2.10;;;;;;;14.75;51.97;101372.97;843979;23;1176;-91
2022/07/28 00:13:40;;;;;;;3.25;2.10;;;;;;;14.70;51.97;101365.00;844127;23;1114;-93
2022/07/28 00:14:06;;;;;;;2.83;2.10;;;;;;;14.72;52.07;101368.53;843996;23;1355;-93
2022/07/28 00:14:29;;;;;;;3.97;2.20;;;;;;;14.77;51.99;101377.38;848102;23;1320;-92
2022/07/28 00:14:56;;;;;;;3.13;2.00;;;;;;;14.76;51.78;101385.25;856391;23;1266;-91
2022/07/28 00:15:23;;;;;;;2.33;1.88;;;;;;;14.67;51.85;101362.31;859590;23;1201;-93
2022/07/28 00:15:54;;;;;;;3.00;2.20;;;;;;;14.71;51.94;101366.78;852245;23;1220;-92
2022/07/28 00:16:17;;;;;;;3.00;2.30;;;;;;;14.66;51.91;101360.53;852147;23;1160;-91
2022/07/28 00:16:38;;;;;;;2.30;2.10;;;;;;;14.78;52.06;101384.44;852217;23;1247;-91
2022/07/28 00:17:02;;;;;;;2.40;2.20;;;;;;;14.69;51.87;101362.34;848243;23;1187;-91
2022/07/28 00:17:23;;;;;;;2.63;2.25;;;;;;;14.68;51.93;101358.81;847948;23;1152;-91
2022/07/28 00:17:46;;;;;;;2.50;2.00;;;;;;;14.75;51.95;101378.25;856500;23;1109;-92
2022/07/28 00:18:09;;;;;;;2.20;2.00;;;;;;;14.76;51.99;101377.38;856364;23;1165;-92
2022/07/28 00:18:31;;;;;;;2.00;1.90;;;;;;;14.75;52.07;101370.34;856393;23;1316;-93
2022/07/28 00:18:51;;;;;;;2.25;2.00;;;;;;;14.74;52.32;101377.34;852428;23;1287;-93
2022/07/28 00:19:15;;;;;;;3.63;2.20;;;;;;;14.80;52.02;101392.34;847413;23;1220;-92
2022/07/28 00:19:36;;;;;;;4.60;2.28;;;;;;;14.75;51.94;101379.09;843882;23;1414;-91
2022/07/28 00:20:02;;;;;;;3.30;2.05;;;;;;;14.76;52.00;101383.50;852003;23;1401;-92
2022/07/28 00:20:25;;;;;;;3.00;2.03;;;;;;;14.75;52.19;101376.47;848204;23;1131;-92
2022/07/28 00:20:48;;;;;;;2.85;2.15;;;;;;;14.80;52.24;101393.22;852316;23;1229;-91
2022/07/28 00:21:09;;;;;;;2.33;2.10;;;;;;;14.72;52.18;101378.16;856001;23;1132;-92
2022/07/28 00:21:30;;;;;;;2.45;2.20;;;;;;;14.70;52.23;101372.00;848072;23;1152;-92
2022/07/28 00:21:53;;;;;;;2.60;2.10;;;;;;;14.66;52.27;101371.03;848379;23;1199;-93
2022/07/28 00:22:24;;;;;;;2.58;2.20;;;;;;;14.72;52.07;101381.69;851979;23;1220;-92
2022/07/28 00:22:50;;;;;;;3.25;2.13;;;;;;;14.72;52.13;101375.53;856542;23;1248;-93
2022/07/28 00:23:16;;;;;;;3.88;2.20;;;;;;;14.67;51.98;101372.81;860424;23;1243;-93
2022/07/28 00:23:39;;;;;;;3.50;2.10;;;;;;;14.70;52.18;101382.50;848777;23;1307;-93
2022/07/28 00:24:02;;;;;;;3.72;2.00;;;;;;;14.71;52.29;101382.53;847986;23;1033;-94
2022/07/28 00:24:26;;;;;;;2.97;1.98;;;;;;;14.71;52.26;101376.38;843752;23;1134;-93
2022/07/28 00:24:54;;;;;;;3.38;2.22;;;;;;;14.62;52.23;101363.97;848214;23;1215;-92
2022/07/28 00:25:21;;;;;;;3.97;2.40;;;;;;;14.66;52.29;101377.19;847967;23;1200;-93
2022/07/28 00:25:49;;;;;;;4.80;2.70;;;;;;;14.65;52.56;101375.41;852266;23;1177;-93
2022/07/28 00:26:13;;;;;;;5.13;2.70;;;;;;;14.70;52.79;101375.53;847638;23;1236;-92
2022/07/28 00:26:37;;;;;;;5.15;2.40;;;;;;;14.62;52.52;101371.84;856428;23;1196;-93
2022/07/28 00:27:03;;;;;;;3.80;2.30;;;;;;;14.64;52.48;101367.50;852119;23;1239;-93
2022/07/28 00:27:26;;;;;;;3.90;2.40;;;;;;;14.66;52.36;101368.41;851720;23;1314;-93
2022/07/28 00:27:47;;;;;;;6.80;2.50;;;;;;;14.59;52.74;101362.16;848136;23;1171;-92
2022/07/28 00:28:08;;;;;;;7.00;2.60;;;;;;;14.64;52.60;101365.75;860315;23;1171;-92
2022/07/28 00:28:31;;;;;;;6.55;2.45;;;;;;;14.58;52.62;101356.88;848023;23;1207;-93
2022/07/28 00:28:54;;;;;;;3.25;2.40;;;;;;;14.62;52.71;101367.47;852359;23;1270;-93
2022/07/28 00:29:22;;;;;;;4.43;2.20;;;;;;;14.62;52.54;101369.22;856116;23;1375;-93
2022/07/28 00:29:55;;;;;;;3.80;2.10;;;;;;;14.64;52.49;101367.50;851920;23;1194;-93
2022/07/28 00:30:21;;;;;;;2.40;2.20;;;;;;;14.66;52.61;101379.81;851456;23;1199;-93
2022/07/28 00:30:55;;;;;;;2.80;2.10;;;;;;;14.66;52.72;101373.66;852338;23;1371;-92
2022/07/28 00:31:23;;;;;;;3.10;2.13;;;;;;;14.58;52.63;101365.66;847946;23;1227;-93
2022/07/28 00:31:47;;;;;;;2.70;2.00;;;;;;;14.60;52.62;101368.28;852378;23;1387;-93
2022/07/28 00:32:12;;;;;;;3.72;2.30;;;;;;;14.60;52.57;101370.91;848086;23;1295;-93
2022/07/28 00:32:33;;;;;;;4.00;2.60;;;;;;;14.60;52.87;101369.19;852420;23;1340;-93
2022/07/28 00:32:57;;;;;;;3.75;2.60;;;;;;;14.52;52.57;101363.75;847937;23;1247;-92
2022/07/28 00:33:26;;;;;;;5.97;2.55;;;;;;;14.55;52.75;101362.06;851813;23;1200;-93
2022/07/28 00:33:57;;;;;;;5.57;2.50;;;;;;;14.56;52.48;101362.06;852222;23;1310;-93
2022/07/28 00:35:03;;;;;;;;;;;;;;;;;;;;;
2022/07/28 00:35:29;;;;;;;3.08;2.13;;;;;;;14.63;52.75;101374.47;843701;23;1161;-93
2022/07/28 00:35:52;;;;;;;4.03;2.38;;;;;;;14.52;52.65;101360.25;852301;23;1192;-93
2022/07/28 00:36:13;;;;;;;4.30;2.53;;;;;;;14.60;52.60;101373.53;847525;23;1152;-92
2022/07/28 00:36:36;;;;;;;4.95;2.50;;;;;;;14.64;52.52;101383.25;848213;23;1265;-92
2022/07/28 00:36:59;;;;;;;4.60;2.70;;;;;;;14.61;52.69;101378.81;848134;23;1235;-93
2022/07/28 00:37:26;;;;;;;4.63;2.50;;;;;;;14.57;52.69;101373.47;843710;23;1052;-93
2022/07/28 00:37:50;;;;;;;4.60;2.33;;;;;;;14.52;52.63;101361.13;852269;23;1266;-93
2022/07/28 00:38:14;;;;;;;4.40;2.28;;;;;;;14.58;52.83;101372.63;847802;23;1236;-93
2022/07/28 00:38:38;;;;;;;3.65;2.15;;;;;;;14.51;52.90;101361.97;852217;23;1196;-93
2022/07/28 00:39:04;;;;;;;3.38;2.15;;;;;;;14.55;52.74;101368.19;848181;23;1271;-93
2022/07/28 00:39:27;;;;;;;3.30;2.25;;;;;;;14.53;52.75;101368.16;859980;23;1443;-93
2022/07/28 00:39:55;;;;;;;6.07;2.30;;;;;;;14.56;52.71;101376.97;860108;23;1427;-93
2022/07/28 00:41:10;;;;;;;3.10;1.90;;;;;;;14.58;52.78;101381.41;852217;23;1186;-93
2022/07/28 00:41:41;;;;;;;3.35;1.95;;;;;;;14.58;52.94;101388.38;864754;22;1219;-93
2022/07/28 00:42:02;;;;;;;3.40;2.20;;;;;;;14.49;52.70;101376.81;852352;23;1226;-94
2022/07/28 00:42:23;;;;;;;2.90;2.22;;;;;;;14.50;52.88;101378.59;848066;23;1219;-93
2022/07/28 00:42:51;;;;;;;2.28;2.08;;;;;;;14.49;52.79;101376.81;852408;23;1282;-92
2022/07/28 00:43:12;;;;;;;2.97;2.00;;;;;;;14.43;53.09;101367.94;851919;23;1335;-93
2022/07/28 00:43:41;;;;;;;3.00;2.00;;;;;;;14.39;53.00;101359.13;856327;23;1314;-93
2022/07/28 00:44:05;;;;;;;2.55;2.00;;;;;;;14.41;52.72;101359.13;856661;23;1232;-93
2022/07/28 00:44:37;;;;;;;2.45;1.95;;;;;;;14.46;52.84;101384.66;848013;23;1168;-93
2022/07/28 00:44:58;;;;;;;3.10;2.00;;;;;;;14.47;53.14;101373.28;844197;23;1402;-92
2022/07/28 00:45:19;;;;;;;3.65;2.10;;;;;;;14.43;52.99;101370.56;851758;23;1224;-92
2022/07/28 00:45:42;;;;;;;4.32;2.05;;;;;;;14.42;52.88;101372.28;844034;23;1262;-93
2022/07/28 00:46:07;;;;;;;3.85;2.00;;;;;;;14.43;53.19;101368.81;844022;23;1187;-93
2022/07/28 00:46:33;;;;;;;3.30;1.90;;;;;;;14.42;52.93;101368.78;852230;23;1235;-92
2022/07/28 00:46:54;;;;;;;4.20;2.20;;;;;;;14.41;53.37;101365.28;852283;23;1239;-93
2022/07/28 00:47:18;;;;;;;4.05;2.33;;;;;;;14.50;53.12;101386.47;843898;23;1299;-92
2022/07/28 00:47:40;;;;;;;5.55;2.55;;;;;;;14.45;53.27;101377.59;844133;23;1356;-93
2022/07/28 00:48:06;;;;;;;4.35;2.30;;;;;;;14.37;53.32;101360.78;852072;23;1270;-93
2022/07/28 00:48:27;;;;;;;2.30;2.10;;;;;;;14.45;53.41;101369.72;852166;23;1499;-92
2022/07/28 00:48:50;;;;;;;2.40;2.00;;;;;;;14.46;53.08;101374.16;856638;23;1197;-93
2022/07/28 00:49:16;;;;;;;2.70;2.20;;;;;;;14.42;53.38;101360.88;847734;23;1298;-93
2022/07/28 00:49:50;;;;;;;;;;;;;;;;;;;;;
2022/07/28 00:50:18;;;;;;;3.03;2.40;;;;;;;14.45;53.25;101376.72;851796;23;1487;-93
2022/07/28 00:50:39;;;;;;;2.22;2.00;;;;;;;14.45;53.13;101376.72;856481;23;1236;-93
2022/07/28 00:51:08;;;;;;;2.47;2.00;;;;;;;14.39;53.19;101364.38;856196;23;1901;-93
2022/07/28 00:51:35;;;;;;;3.30;2.20;;;;;;;14.45;53.00;101361.84;847941;23;1136;-92
2022/07/28 00:52:04;;;;;;;3.17;2.10;;;;;;;14.47;53.32;101373.28;852286;23;1304;-93
2022/07/28 00:52:31;;;;;;;2.53;2.00;;;;;;;14.40;53.26;101355.63;848083;23;1325;-93
2022/07/28 00:52:57;;;;;;;2.20;2.00;;;;;;;14.49;53.35;101382.06;848214;23;1278;-93
2022/07/28 00:53:23;;;;;;;2.67;2.20;;;;;;;14.44;53.31;101362.69;852027;23;1278;-93
2022/07/28 00:53:52;;;;;;;2.97;2.40;;;;;;;14.50;53.31;101369.84;852314;23;1109;-93
2022/07/28 00:54:18;;;;;;;2.75;2.30;;;;;;;14.46;53.24;101366.28;851832;23;1258;-92
2022/07/28 00:54:45;;;;;;;3.10;2.40;;;;;;;14.43;52.99;101360.06;852489;23;1318;-93
2022/07/28 00:55:08;;;;;;;3.72;2.30;;;;;;;14.49;53.06;101365.41;847933;23;1225;-93
2022/07/28 00:55:32;;;;;;;3.90;2.20;;;;;;;14.45;53.50;101367.09;848237;23;1128;-93
2022/07/28 00:55:53;;;;;;;6.75;2.63;;;;;;;14.50;53.47;101364.59;844729;23;1236;-91
2022/07/28 00:56:18;;;;;;;6.45;2.60;;;;;;;14.43;52.96;101355.69;847435;23;1282;-92
2022/07/28 00:56:42;;;;;;;6.00;2.67;;;;;;;14.46;53.38;101358.38;844348;23;1434;-92
2022/07/28 00:57:03;;;;;;;4.70;2.30;;;;;;;14.47;53.15;101359.25;848091;23;1346;-93
2022/07/28 00:57:28;;;;;;;4.47;2.20;;;;;;;14.47;53.25;101356.63;852418;23;1342;-93
2022/07/28 00:57:52;;;;;;;2.90;2.08;;;;;;;14.39;53.32;101343.34;856687;23;1339;-91
2022/07/28 00:58:15;;;;;;;2.80;2.20;;;;;;;14.48;53.17;101356.69;847961;23;1223;-92
2022/07/28 00:58:48;;;;;;;2.83;2.20;;;;;;;14.42;53.31;101342.50;852291;23;1229;-93
2022/07/28 00:59:11;;;;;;;3.30;2.30;;;;;;;14.42;53.20;101343.41;856739;23;1210;-92
2022/07/28 00:59:34;;;;;;;3.40;2.10;;;;;;;14.43;53.15;101347.81;852079;23;1227;-92
2022/07/28 01:00:05;;;;;;;3.90;2.20;;;;;;;14.45;53.25;101356.59;848679;23;1213;-93
2022/07/28 01:00:28;;;;;;;3.78;2.30;;;;;;;14.46;53.21;101355.75;852123;23;1268;-93
2022/07/28 01:00:55;;;;;;;4.55;2.30;;;;;;;14.50;53.21;101356.72;844084;23;1270;-92
2022/07/28 01:01:19;;;;;;;3.90;2.30;;;;;;;14.52;53.43;101358.50;852172;23;1348;-93
2022/07/28 01:01:50;;;;;;;2.60;2.20;;;;;;;14.50;53.11;101352.34;852310;23;1325;-93
2022/07/28 01:02:23;;;;;;;3.45;2.30;;;;;;;14.46;53.02;101346.97;848104;23;1310;-92
2022/07/28 01:02:52;;;;;;;5.18;2.30;;;;;;;14.49;52.88;101347.94;852373;23;1180;-92
2022/07/28 01:03:13;;;;;;;5.05;2.20;;;;;;;14.55;53.03;101355.06;860459;23;1370;-92
2022/07/28 01:03:48;;;;;;;4.80;2.20;;;;;;;14.49;53.23;101350.56;852204;23;1358;-94
2022/07/28 01:04:17;;;;;;;4.10;2.50;;;;;;;14.57;53.10;101369.09;847676;23;1185;-93
2022/07/28 01:04:40;;;;;;;4.05;2.50;;;;;;;14.50;53.30;101351.47;844041;23;1250;-91
2022/07/28 01:05:05;;;;;;;3.50;2.40;;;;;;;14.59;53.00;101369.13;852078;23;1417;-92
2022/07/28 01:05:44;;;;;;;3.60;2.17;;;;;;;14.62;53.22;101369.22;847685;23;1081;-93
2022/07/28 01:06:13;;;;;;;2.22;2.00;;;;;;;14.55;53.09;101362.94;847895;23;1204;-93
2022/07/28 01:06:44;;;;;;;2.83;2.25;;;;;;;14.60;53.17;101369.19;856555;23;1215;-94
2022/07/28 01:07:47;;;;;;;3.40;2.30;;;;;;;14.60;53.15;101369.19;857548;23;1064;-92
2022/07/28 01:08:37;;;;;;;2.40;2.20;;;;;;;14.61;53.33;101362.16;847786;23;1239;-92
2022/07/28 01:09:37;;;;;;;5.70;2.20;;;;;;;14.54;53.36;101358.53;835661;23;1221;-92
2022/07/28 01:10:19;;;;;;;2.63;2.05;;;;;;;14.57;53.02;101362.97;856160;23;1096;-94
2022/07/28 01:11:21;;;;;;;2.85;2.33;;;;;;;14.45;53.10;101348.72;856434;23;1342;-93
2022/07/28 01:12:15;;;;;;;4.57;2.40;;;;;;;14.53;53.39;101356.78;845390;23;1450;-92
2022/07/28 01:13:02;;;;;;;3.42;2.17;;;;;;;14.45;53.28;101351.34;851855;23;1219;-93
2022/07/28 01:13:37;;;;;;;2.85;2.10;;;;;;;14.48;53.39;101348.78;856074;23;1120;-93
2022/07/28 01:14:27;;;;;;;4.10;2.30;;;;;;;14.48;53.48;101347.91;844054;23;1105;-92
2022/07/28 01:14:55;;;;;;;3.47;2.20;;;;;;;14.44;53.42;101349.56;851992;23;1278;-92
2022/07/28 01:15:39;;;;;;;2.38;2.00;;;;;;;14.43;53.39;101345.19;847988;23;1239;-92
2022/07/28 01:16:05;;;;;;;2.58;2.20;;;;;;;14.47;53.37;101356.63;852247;23;1414;-93
2022/07/28 01:16:29;;;;;;;2.53;2.30;;;;;;;14.46;53.38;101353.13;856314;23;1259;-92
2022/07/28 01:17:03;;;;;;;3.95;2.40;;;;;;;14.49;53.48;101357.53;852449;23;1271;-93
2022/07/28 01:17:44;;;;;;;3.70;2.40;;;;;;;14.49;53.33;101360.16;848425;23;1203;-93
2022/07/28 01:18:26;;;;;;;3.50;2.28;;;;;;;14.43;53.34;101353.06;852279;23;1338;-93
2022/07/28 01:19:44;;;;;;;5.70;2.15;;;;;;;14.52;53.60;101368.13;856473;23;1221;-93
2022/07/28 01:20:14;;;;;;;4.50;2.20;;;;;;;14.49;53.37;101368.03;816347;24;1290;-93
2022/07/28 01:20:44;;;;;;;5.18;2.40;;;;;;;14.35;53.46;101345.03;816811;24;1163;-92
2022/07/28 01:21:16;;;;;;;4.88;2.60;;;;;;;14.36;53.41;101341.53;840090;23;1266;-93
2022/07/28 01:21:44;;;;;;;3.45;2.53;;;;;;;14.44;53.39;101356.59;840048;23;1249;-93
2022/07/28 01:22:13;;;;;;;3.72;2.42;;;;;;;14.35;53.41;101338.88;852215;23;1081;-93
2022/07/28 01:22:43;;;;;;;3.42;2.20;;;;;;;14.35;53.65;101342.41;848397;23;1266;-93
2022/07/28 01:23:10;;;;;;;2.55;2.10;;;;;;;14.49;53.62;101361.06;852130;23;1312;-92
2022/07/28 01:23:58;;;;;;;2.67;2.38;;;;;;;14.41;53.57;101352.16;856526;23;1330;-92
2022/07/28 01:24:26;;;;;;;3.60;2.50;;;;;;;14.48;53.66;101364.56;847783;23;1235;-93
2022/07/28 01:25:05;;;;;;;3.55;2.45;;;;;;;14.36;53.66;101343.28;848239;23;1171;-93
2022/07/28 01:26:08;;;;;;;3.30;2.50;;;;;;;14.44;53.71;101353.97;852103;23;1384;-93
2022/07/28 01:26:57;;;;;;;4.35;2.38;;;;;;;14.35;53.58;101338.88;856498;23;1378;-92
2022/07/28 01:27:35;;;;;;;2.53;2.20;;;;;;;14.37;53.66;101342.41;855604;23;1431;-93
2022/07/28 01:28:19;;;;;;;2.70;2.10;;;;;;;14.46;53.57;101357.50;847293;23;1336;-93
2022/07/28 01:28:48;;;;;;;4.75;2.28;;;;;;;14.46;53.45;101358.38;848208;23;1337;-93
2022/07/28 01:29:57;;;;;;;4.68;2.30;;;;;;;14.47;53.47;101357.53;847897;23;1386;-93
2022/07/28 01:30:33;;;;;;;2.95;2.40;;;;;;;14.39;53.78;101348.59;843833;23;1145;-93
2022/07/28 01:30:57;;;;;;;3.97;2.40;;;;;;;14.31;53.67;101334.44;844383;23;1192;-93
2022/07/28 01:31:29;;;;;;;4.47;2.22;;;;;;;14.35;53.87;101338.88;848230;23;1942;-92
2022/07/28 01:32:03;;;;;;;5.15;2.40;;;;;;;14.37;53.72;101347.66;848057;23;1249;-94
2022/07/28 01:32:30;;;;;;;3.50;2.38;;;;;;;14.40;53.91;101345.13;852144;23;1227;-94
2022/07/28 01:33:03;;;;;;;2.83;2.30;;;;;;;14.40;53.83;101345.13;848072;23;1188;-92
2022/07/28 01:33:43;;;;;;;2.53;2.20;;;;;;;14.32;53.93;101333.56;860436;23;1278;-93
2022/07/28 01:34:17;;;;;;;3.30;2.10;;;;;;;14.32;53.93;101339.69;852251;23;1231;-93
2022/07/28 01:34:56;;;;;;;3.38;2.30;;;;;;;14.38;54.17;101339.84;848254;23;1303;-93
2022/07/28 01:35:38;;;;;;;3.70;2.40;;;;;;;14.42;53.99;101342.50;855986;23;1382;-92
2022/07/28 01:36:10;;;;;;;3.00;2.20;;;;;;;14.35;54.15;101336.25;848283;23;1245;-93
2022/07/28 01:36:37;;;;;;;2.70;2.00;;;;;;;14.35;54.15;101336.25;843957;23;1215;-93
2022/07/28 01:37:09;;;;;;;4.50;2.40;;;;;;;14.43;54.19;101347.81;844439;23;1126;-93
2022/07/28 01:37:31;;;;;;;4.75;2.70;;;;;;;14.40;53.98;101339.88;848024;23;1234;-92
2022/07/28 01:37:56;;;;;;;3.63;2.50;;;;;;;14.45;54.05;101351.34;852106;23;1155;-93
2022/07/28 01:38:21;;;;;;;2.90;2.60;;;;;;;14.44;53.97;101346.94;851756;23;1208;-92
2022/07/28 01:38:53;;;;;;;5.78;2.53;;;;;;;14.38;54.07;101341.59;848060;23;1311;-93
2022/07/28 01:39:18;;;;;;;6.80;2.60;;;;;;;14.36;53.81;101332.75;847779;23;1125;-93
2022/07/28 01:39:46;;;;;;;3.47;2.65;;;;;;;14.35;53.98;101331.00;851684;23;1128;-93
2022/07/28 01:40:12;;;;;;;3.47;2.50;;;;;;;14.42;53.92;101348.66;852305;23;1166;-93
2022/07/28 01:40:45;;;;;;;3.50;2.60;;;;;;;14.37;54.25;101331.91;848129;23;1246;-93
2022/07/28 01:41:11;;;;;;;3.40;2.50;;;;;;;14.45;53.99;101353.97;856185;23;1175;-92
2022/07/28 01:41:36;;;;;;;3.55;2.60;;;;;;;14.37;53.94;101334.53;860486;23;1289;-92
2022/07/28 01:42:00;;;;;;;4.45;2.50;;;;;;;14.41;54.08;101344.25;856386;23;1084;-92
2022/07/28 01:42:30;;;;;;;3.80;2.30;;;;;;;14.44;54.03;101349.56;847808;23;1072;-94
2022/07/28 01:43:00;;;;;;;4.32;2.42;;;;;;;14.38;54.23;101341.59;848064;23;1291;-92
2022/07/28 01:43:29;;;;;;;4.88;2.40;;;;;;;14.43;54.05;101344.31;847730;23;1207;-93
2022/07/28 01:44:07;;;;;;;4.35;2.15;;;;;;;14.34;54.26;101330.13;847983;23;1232;-93
2022/07/28 01:44:33;;;;;;;5.53;2.30;;;;;;;14.45;54.24;101346.09;851945;23;1247;-93
2022/07/28 01:45:16;;;;;;;;;;;;;;;;;;;;;
2022/07/28 01:45:43;;;;;;;4.35;2.50;;;;;;;14.42;54.13;101348.66;856204;23;1207;-93
2022/07/28 01:46:07;;;;;;;4.60;2.40;;;;;;;14.30;54.03;101327.38;843807;23;1318;-93
2022/07/28 01:46:38;;;;;;;4.00;2.40;;;;;;;14.33;54.31;101327.47;843935;23;1192;-93
2022/07/28 01:47:06;;;;;;;3.38;2.47;;;;;;;14.33;54.40;101330.09;847919;23;1382;-94
2022/07/28 01:47:30;;;;;;;3.20;2.38;;;;;;;14.35;54.17;101333.63;847976;23;1225;-92
2022/07/28 01:48:05;;;;;;;3.30;2.40;;;;;;;14.36;54.49;101338.91;852122;23;1284;-93
2022/07/28 01:48:45;;;;;;;5.95;2.83;;;;;;;14.40;54.24;101345.13;856355;23;1396;-93
2022/07/28 01:49:21;;;;;;;4.57;2.50;;;;;;;14.41;54.46;101349.53;852056;23;1298;-94
2022/07/28 01:49:49;;;;;;;3.10;2.20;;;;;;;14.30;54.36;101328.28;851867;23;1116;-93
2022/07/28 01:50:26;;;;;;;5.53;2.20;;;;;;;14.35;54.18;101339.78;851916;23;1153;-93
2022/07/28 01:51:11;;;;;;;5.80;2.28;;;;;;;14.28;54.62;101331.72;852371;23;1274;-92
2022/07/28 01:51:36;;;;;;;3.95;2.40;;;;;;;14.38;54.56;101346.84;848038;23;1361;-93
2022/07/28 01:52:26;;;;;;;2.88;2.25;;;;;;;14.34;54.47;101337.09;847514;23;1130;-93
2022/07/28 01:52:48;;;;;;;4.45;2.38;;;;;;;14.37;54.48;101348.56;860406;23;1409;-93
2022/07/28 01:53:17;;;;;;;5.30;2.70;;;;;;;14.39;54.63;101353.84;855986;23;1362;-93
2022/07/28 01:53:45;;;;;;;6.28;2.60;;;;;;;14.37;54.40;101356.44;848093;23;1208;-92
2022/07/28 01:54:08;;;;;;;4.72;2.33;;;;;;;14.22;54.53;101324.59;847827;23;1197;-93
2022/07/28 01:54:32;;;;;;;3.90;2.35;;;;;;;14.31;54.68;101342.31;847646;23;1202;-92
2022/07/28 01:54:59;;;;;;;4.60;2.33;;;;;;;14.28;54.60;101330.00;856321;23;1346;-93
2022/07/28 01:55:28;;;;;;;4.15;2.40;;;;;;;14.20;54.74;101315.81;855938;23;1327;-93
2022/07/28 01:55:56;;;;;;;4.45;2.50;;;;;;;14.28;54.82;101331.72;852208;23;1146;-93
2022/07/28 01:56:22;;;;;;;7.03;2.63;;;;;;;14.32;54.77;101344.06;860083;23;1253;-93
2022/07/28 01:56:48;;;;;;;7.80;2.55;;;;;;;14.18;54.95;101323.66;852276;23;1255;-93
2022/07/28 01:57:28;;;;;;;4.70;2.20;;;;;;;14.18;54.67;101322.75;847708;23;1204;-93
2022/07/28 01:58:09;;;;;;;3.40;2.30;;;;;;;14.21;54.92;101330.72;860633;23;1244;-93
2022/07/28 01:58:43;;;;;;;3.67;2.50;;;;;;;14.20;54.87;101335.06;852829;23;1350;-92
2022/07/28 01:59:11;;;;;;;4.40;2.50;;;;;;;14.13;55.00;101322.66;853021;23;1270;-93
2022/07/28 01:59:38;;;;;;;3.35;2.38;;;;;;;14.18;54.80;101334.16;852036;23;1381;-93
2022/07/28 02:00:13;;;;;;;2.55;2.30;;;;;;;14.18;54.82;101335.88;856053;23;1227;-93
2022/07/28 02:00:38;;;;;;;2.53;2.30;;;;;;;14.19;54.95;101341.16;848026;23;1154;-92
2022/07/28 02:01:30;;;;;;;2.60;2.28;;;;;;;14.14;55.22;101332.31;856682;23;1310;-93
2022/07/28 02:01:58;;;;;;;3.28;2.60;;;;;;;14.13;55.34;101330.53;848181;23;1504;-93
2022/07/28 02:02:35;;;;;;;3.25;2.42;;;;;;;14.08;55.51;101326.91;851987;23;1274;-94
2022/07/28 02:03:09;;;;;;;3.20;2.40;;;;;;;14.13;55.20;101341.03;852462;23;1320;-93
2022/07/28 02:03:42;;;;;;;3.15;2.30;;;;;;;14.11;55.30;101337.50;852389;23;1229;-93
2022/07/28 02:04:11;;;;;;;3.75;2.20;;;;;;;14.12;55.50;101341.88;852379;23;1223;-93
2022/07/28 02:04:47;;;;;;;4.30;2.28;;;;;;;14.09;55.23;101336.53;844323;23;1338;-93
2022/07/28 02:05:20;;;;;;;3.72;2.50;;;;;;;14.03;55.20;101320.66;845359;23;1039;-93
2022/07/28 02:05:52;;;;;;;3.13;2.40;;;;;;;14.06;55.47;101333.81;848097;23;1242;-92
2022/07/28 02:06:20;;;;;;;4.43;2.70;;;;;;;14.09;55.66;101344.41;851914;23;1267;-93
2022/07/28 02:06:52;;;;;;;4.70;2.70;;;;;;;14.00;55.60;101331.97;848010;23;1381;-93
2022/07/28 02:07:23;;;;;;;2.53;2.33;;;;;;;13.96;55.63;101324.88;851929;23;1277;-93
2022/07/28 02:07:53;;;;;;;3.33;2.50;;;;;;;14.04;55.55;101341.69;856630;23;1180;-93
2022/07/28 02:08:19;;;;;;;3.80;2.60;;;;;;;13.96;55.71;101328.38;852060;23;1226;-93
2022/07/28 02:08:49;;;;;;;3.95;2.55;;;;;;;13.92;55.74;101328.28;852151;23;1335;-93
2022/07/28 02:09:20;;;;;;;3.88;2.35;;;;;;;13.97;55.64;101334.53;843648;23;1291;-93
2022/07/28 02:09:53;;;;;;;2.90;2.10;;;;;;;13.95;55.73;101329.22;855876;23;1352;-93
2022/07/28 02:10:22;;;;;;;5.30;2.65;;;;;;;13.89;55.71;101326.47;855765;23;1173;-93
2022/07/28 02:11:38;;;;;;;6.00;2.80;;;;;;;13.97;55.84;101338.00;852015;23;1341;-93
2022/07/28 02:11:40;;;;;;;2.78;2.20;;;;;;;13.83;56.09;101318.47;848145;23;1381;-93
2022/07/28 02:12:09;;;;;;;3.60;2.30;;;;;;;13.85;55.89;101324.63;844190;23;1343;-93
2022/07/28 02:12:42;;;;;;;4.25;2.53;;;;;;;13.91;55.92;101329.13;847982;23;1426;-92
2022/07/28 02:13:08;;;;;;;3.47;2.50;;;;;;;13.88;56.15;101319.44;847956;23;1176;-93
2022/07/28 02:13:40;;;;;;;3.58;2.60;;;;;;;13.90;56.06;101330.84;844110;23;1132;-93
2022/07/28 02:14:06;;;;;;;4.25;2.88;;;;;;;13.85;55.97;101314.13;852041;23;1250;-93
2022/07/28 02:14:35;;;;;;;4.35;2.65;;;;;;;13.88;56.04;101319.44;844011;23;1299;-93
2022/07/28 02:15:04;;;;;;;4.65;2.40;;;;;;;13.95;55.90;101341.47;848025;23;1454;-93
2022/07/28 02:16:16;;;;;;;2.88;2.33;;;;;;;13.84;56.41;101317.63;847353;23;1167;-93
2022/07/28 02:16:44;;;;;;;3.45;2.30;;;;;;;13.88;56.10;101322.06;851636;23;1349;-94
2022/07/28 02:17:23;;;;;;;;;;;;;;;;;;;;;
2022/07/28 02:17:46;;;;;;;6.13;2.50;;;;;;;13.84;56.31;101317.63;847949;23;1385;-93
2022/07/28 02:18:10;;;;;;;7.47;2.50;;;;;;;13.80;56.29;101310.50;848273;23;1164;-93
2022/07/28 02:18:38;;;;;;;5.65;2.50;;;;;;;13.88;56.13;101322.06;848004;23;1347;-92
2022/07/28 02:19:08;;;;;;;4.60;2.40;;;;;;;13.85;56.35;101317.63;856364;23;1173;-93
2022/07/28 02:19:41;;;;;;;4.90;2.60;;;;;;;13.88;56.29;101324.69;856060;23;1261;-93
2022/07/28 02:20:15;;;;;;;6.13;2.60;;;;;;;13.82;56.00;101311.44;852081;23;1142;-93
2022/07/28 02:20:53;;;;;;;5.88;2.70;;;;;;;13.82;56.13;101306.19;852222;23;1196;-93
2022/07/28 02:21:17;;;;;;;4.50;2.60;;;;;;;13.86;56.02;101321.16;851958;23;1243;-94
2022/07/28 02:22:10;;;;;;;4.63;2.50;;;;;;;13.93;56.00;101330.03;856303;23;1247;-93
2022/07/28 02:22:35;;;;;;;6.40;3.10;;;;;;;13.91;56.17;101326.50;860438;23;1167;-92
2022/07/28 02:23:06;;;;;;;8.68;2.97;;;;;;;13.82;56.36;101314.94;856325;23;1415;-93